sensor_id;sensor_type;location;lat;lon;timestamp;P1;durP1;ratioP1;P2;durP2;ratioP2
10586;SDS011;5341;47.606;7.576;2023-02-26T00:00:42;6.68;;;3.40;;
10586;SDS011;5341;47.606;7.576;2023-02-26T00:03:09;5.05;;;3.33;;
10586;SDS011;5341;47.606;7.576;2023-02-26T00:05:37;4.72;;;2.78;;
10586;SDS011;5341;47.606;7.576;2023-02-26T00:08:05;6.10;;;2.90;;
10586;SDS011;5341;47.606;7.576;2023-02-26T00:10:32;8.18;;;3.20;;
10586;SDS011;5341;47.606;7.576;2023-02-26T00:12:59;4.00;;;2.95;;
10586;SDS011;5341;47.606;7.576;2023-02-26T00:15:27;3.00;;;2.70;;
10586;SDS011;5341;47.606;7.576;2023-02-26T00:17:57;3.42;;;2.60;;
10586;SDS011;5341;47.606;7.576;2023-02-26T00:20:29;5.13;;;3.00;;
10586;SDS011;5341;47.606;7.576;2023-02-26T00:22:57;5.65;;;2.90;;
10586;SDS011;5341;47.606;7.576;2023-02-26T00:25:24;5.13;;;2.90;;
10586;SDS011;5341;47.606;7.576;2023-02-26T00:27:52;4.93;;;2.90;;
10586;SDS011;5341;47.606;7.576;2023-02-26T00:30:20;4.32;;;2.85;;
10586;SDS011;5341;47.606;7.576;2023-02-26T00:32:48;4.30;;;2.65;;
10586;SDS011;5341;47.606;7.576;2023-02-26T00:35:18;3.63;;;2.70;;
10586;SDS011;5341;47.606;7.576;2023-02-26T00:37:53;3.15;;;2.50;;
10586;SDS011;5341;47.606;7.576;2023-02-26T00:40:27;4.93;;;2.60;;
10586;SDS011;5341;47.606;7.576;2023-02-26T00:43:02;3.38;;;2.40;;
10586;SDS011;5341;47.606;7.576;2023-02-26T00:45:30;4.78;;;2.70;;
10586;SDS011;5341;47.606;7.576;2023-02-26T00:48:06;3.28;;;2.55;;
10586;SDS011;5341;47.606;7.576;2023-02-26T00:50:51;3.88;;;2.20;;
10586;SDS011;5341;47.606;7.576;2023-02-26T00:53:26;4.43;;;2.30;;
10586;SDS011;5341;47.606;7.576;2023-02-26T00:56:00;5.03;;;2.30;;
10586;SDS011;5341;47.606;7.576;2023-02-26T00:58:27;4.47;;;2.13;;
10586;SDS011;5341;47.606;7.576;2023-02-26T01:00:55;5.47;;;2.05;;
10586;SDS011;5341;47.606;7.576;2023-02-26T01:03:25;4.63;;;2.40;;
10586;SDS011;5341;47.606;7.576;2023-02-26T01:05:58;6.50;;;2.25;;
10586;SDS011;5341;47.606;7.576;2023-02-26T01:08:31;3.53;;;2.10;;
10586;SDS011;5341;47.606;7.576;2023-02-26T01:11:03;5.32;;;2.15;;
10586;SDS011;5341;47.606;7.576;2023-02-26T01:13:31;2.67;;;2.08;;
10586;SDS011;5341;47.606;7.576;2023-02-26T01:16:00;3.13;;;2.20;;
10586;SDS011;5341;47.606;7.576;2023-02-26T01:18:32;3.00;;;2.10;;
10586;SDS011;5341;47.606;7.576;2023-02-26T01:21:11;3.83;;;2.20;;
10586;SDS011;5341;47.606;7.576;2023-02-26T01:23:46;3.80;;;2.22;;
10586;SDS011;5341;47.606;7.576;2023-02-26T01:26:17;2.80;;;1.77;;
10586;SDS011;5341;47.606;7.576;2023-02-26T01:28:50;4.95;;;2.40;;
10586;SDS011;5341;47.606;7.576;2023-02-26T01:31:25;2.70;;;1.95;;
10586;SDS011;5341;47.606;7.576;2023-02-26T01:34:04;3.10;;;2.17;;
10586;SDS011;5341;47.606;7.576;2023-02-26T01:36:38;4.05;;;2.00;;
10586;SDS011;5341;47.606;7.576;2023-02-26T01:39:13;4.28;;;1.90;;
10586;SDS011;5341;47.606;7.576;2023-02-26T01:41:51;5.40;;;2.10;;
10586;SDS011;5341;47.606;7.576;2023-02-26T01:44:22;2.78;;;1.80;;
10586;SDS011;5341;47.606;7.576;2023-02-26T01:47:05;4.15;;;2.22;;
10586;SDS011;5341;47.606;7.576;2023-02-26T01:49:41;4.07;;;1.95;;
10586;SDS011;5341;47.606;7.576;2023-02-26T01:55:21;2.53;;;2.00;;
10586;SDS011;5341;47.606;7.576;2023-02-26T01:57:55;3.13;;;2.10;;
10586;SDS011;5341;47.606;7.576;2023-02-26T02:00:25;3.05;;;2.05;;
10586;SDS011;5341;47.606;7.576;2023-02-26T02:02:52;3.97;;;2.10;;
10586;SDS011;5341;47.606;7.576;2023-02-26T02:05:20;3.42;;;2.20;;
10586;SDS011;5341;47.606;7.576;2023-02-26T02:07:54;3.50;;;1.92;;
10586;SDS011;5341;47.606;7.576;2023-02-26T02:10:25;3.58;;;2.10;;
10586;SDS011;5341;47.606;7.576;2023-02-26T02:12:54;3.08;;;1.98;;
10586;SDS011;5341;47.606;7.576;2023-02-26T02:15:29;4.43;;;2.17;;
10586;SDS011;5341;47.606;7.576;2023-02-26T02:18:07;4.72;;;2.05;;
10586;SDS011;5341;47.606;7.576;2023-02-26T02:23:46;3.72;;;2.17;;
10586;SDS011;5341;47.606;7.576;2023-02-26T02:26:31;3.05;;;1.90;;
10586;SDS011;5341;47.606;7.576;2023-02-26T02:29:32;3.22;;;2.08;;
10586;SDS011;5341;47.606;7.576;2023-02-26T02:32:27;2.42;;;1.80;;
10586;SDS011;5341;47.606;7.576;2023-02-26T02:35:01;3.20;;;2.10;;
10586;SDS011;5341;47.606;7.576;2023-02-26T02:37:34;3.35;;;1.98;;
10586;SDS011;5341;47.606;7.576;2023-02-26T02:40:06;3.28;;;2.00;;
10586;SDS011;5341;47.606;7.576;2023-02-26T02:42:39;2.97;;;2.08;;
10586;SDS011;5341;47.606;7.576;2023-02-26T02:45:14;3.63;;;1.90;;
10586;SDS011;5341;47.606;7.576;2023-02-26T02:47:49;2.58;;;1.80;;
10586;SDS011;5341;47.606;7.576;2023-02-26T02:50:24;3.65;;;1.85;;
10586;SDS011;5341;47.606;7.576;2023-02-26T02:53:00;3.30;;;2.08;;
10586;SDS011;5341;47.606;7.576;2023-02-26T02:55:32;2.85;;;1.95;;
10586;SDS011;5341;47.606;7.576;2023-02-26T02:58:05;2.70;;;2.10;;
10586;SDS011;5341;47.606;7.576;2023-02-26T03:00:37;4.05;;;2.10;;
10586;SDS011;5341;47.606;7.576;2023-02-26T03:05:54;2.97;;;2.13;;
10586;SDS011;5341;47.606;7.576;2023-02-26T03:08:23;3.22;;;2.10;;
10586;SDS011;5341;47.606;7.576;2023-02-26T03:10:54;2.65;;;2.10;;
10586;SDS011;5341;47.606;7.576;2023-02-26T03:13:23;3.42;;;2.40;;
10586;SDS011;5341;47.606;7.576;2023-02-26T03:16:02;3.75;;;2.10;;
10586;SDS011;5341;47.606;7.576;2023-02-26T03:18:45;3.10;;;2.30;;
10586;SDS011;5341;47.606;7.576;2023-02-26T03:21:22;2.53;;;1.90;;
10586;SDS011;5341;47.606;7.576;2023-02-26T03:23:59;3.08;;;2.03;;
10586;SDS011;5341;47.606;7.576;2023-02-26T03:26:34;3.92;;;2.03;;
10586;SDS011;5341;47.606;7.576;2023-02-26T03:29:08;3.83;;;2.10;;
10586;SDS011;5341;47.606;7.576;2023-02-26T03:31:44;4.20;;;2.30;;
10586;SDS011;5341;47.606;7.576;2023-02-26T03:34:22;3.58;;;2.40;;
10586;SDS011;5341;47.606;7.576;2023-02-26T03:37:00;3.15;;;1.90;;
10586;SDS011;5341;47.606;7.576;2023-02-26T03:39:33;5.43;;;2.10;;
10586;SDS011;5341;47.606;7.576;2023-02-26T03:42:07;4.25;;;2.33;;
10586;SDS011;5341;47.606;7.576;2023-02-26T03:44:56;4.43;;;2.40;;
10586;SDS011;5341;47.606;7.576;2023-02-26T03:47:27;4.55;;;2.20;;
10586;SDS011;5341;47.606;7.576;2023-02-26T03:50:01;4.53;;;2.40;;
10586;SDS011;5341;47.606;7.576;2023-02-26T03:52:39;5.82;;;2.40;;
10586;SDS011;5341;47.606;7.576;2023-02-26T03:55:23;4.38;;;2.30;;
10586;SDS011;5341;47.606;7.576;2023-02-26T03:58:22;2.42;;;2.10;;
10586;SDS011;5341;47.606;7.576;2023-02-26T04:01:11;3.60;;;1.95;;
10586;SDS011;5341;47.606;7.576;2023-02-26T04:03:44;3.53;;;2.10;;
10586;SDS011;5341;47.606;7.576;2023-02-26T04:06:16;3.10;;;2.22;;
10586;SDS011;5341;47.606;7.576;2023-02-26T04:08:44;4.57;;;2.30;;
10586;SDS011;5341;47.606;7.576;2023-02-26T04:11:14;3.80;;;2.30;;
10586;SDS011;5341;47.606;7.576;2023-02-26T04:13:46;2.90;;;1.95;;
10586;SDS011;5341;47.606;7.576;2023-02-26T04:16:17;3.15;;;1.98;;
10586;SDS011;5341;47.606;7.576;2023-02-26T04:18:45;3.40;;;2.05;;
10586;SDS011;5341;47.606;7.576;2023-02-26T04:21:14;2.83;;;1.90;;
10586;SDS011;5341;47.606;7.576;2023-02-26T04:23:46;3.83;;;2.20;;
10586;SDS011;5341;47.606;7.576;2023-02-26T04:26:14;4.25;;;2.00;;
10586;SDS011;5341;47.606;7.576;2023-02-26T04:28:44;4.60;;;2.08;;
10586;SDS011;5341;47.606;7.576;2023-02-26T04:31:11;2.95;;;1.95;;
10586;SDS011;5341;47.606;7.576;2023-02-26T04:33:40;3.15;;;1.83;;
10586;SDS011;5341;47.606;7.576;2023-02-26T04:36:09;4.55;;;2.05;;
10586;SDS011;5341;47.606;7.576;2023-02-26T04:38:38;4.43;;;1.92;;
10586;SDS011;5341;47.606;7.576;2023-02-26T04:41:07;3.00;;;2.05;;
10586;SDS011;5341;47.606;7.576;2023-02-26T04:43:35;3.90;;;1.73;;
10586;SDS011;5341;47.606;7.576;2023-02-26T04:46:24;3.63;;;2.10;;
10586;SDS011;5341;47.606;7.576;2023-02-26T04:48:52;2.53;;;1.90;;
10586;SDS011;5341;47.606;7.576;2023-02-26T04:51:20;3.42;;;2.00;;
10586;SDS011;5341;47.606;7.576;2023-02-26T04:53:51;3.38;;;2.10;;
10586;SDS011;5341;47.606;7.576;2023-02-26T04:56:19;4.45;;;2.10;;
10586;SDS011;5341;47.606;7.576;2023-02-26T04:58:46;2.83;;;2.08;;
10586;SDS011;5341;47.606;7.576;2023-02-26T05:01:20;2.95;;;1.90;;
10586;SDS011;5341;47.606;7.576;2023-02-26T05:03:48;6.10;;;2.75;;
10586;SDS011;5341;47.606;7.576;2023-02-26T05:06:15;2.33;;;1.98;;
10586;SDS011;5341;47.606;7.576;2023-02-26T05:08:43;3.35;;;1.95;;
10586;SDS011;5341;47.606;7.576;2023-02-26T05:11:12;2.60;;;1.88;;
10586;SDS011;5341;47.606;7.576;2023-02-26T05:13:39;3.35;;;2.10;;
10586;SDS011;5341;47.606;7.576;2023-02-26T05:16:07;2.20;;;1.80;;
10586;SDS011;5341;47.606;7.576;2023-02-26T05:18:35;2.47;;;1.92;;
10586;SDS011;5341;47.606;7.576;2023-02-26T05:21:03;2.42;;;2.08;;
10586;SDS011;5341;47.606;7.576;2023-02-26T05:23:31;2.33;;;2.00;;
10586;SDS011;5341;47.606;7.576;2023-02-26T05:25:59;2.72;;;2.15;;
10586;SDS011;5341;47.606;7.576;2023-02-26T05:28:28;2.67;;;2.00;;
10586;SDS011;5341;47.606;7.576;2023-02-26T05:30:56;3.30;;;1.95;;
10586;SDS011;5341;47.606;7.576;2023-02-26T05:33:24;2.85;;;2.20;;
10586;SDS011;5341;47.606;7.576;2023-02-26T05:35:51;2.65;;;1.90;;
10586;SDS011;5341;47.606;7.576;2023-02-26T05:38:18;4.97;;;2.38;;
10586;SDS011;5341;47.606;7.576;2023-02-26T05:40:46;2.28;;;1.95;;
10586;SDS011;5341;47.606;7.576;2023-02-26T05:43:13;2.67;;;2.10;;
10586;SDS011;5341;47.606;7.576;2023-02-26T05:45:42;3.20;;;2.00;;
10586;SDS011;5341;47.606;7.576;2023-02-26T05:48:09;3.42;;;1.90;;
10586;SDS011;5341;47.606;7.576;2023-02-26T05:50:37;3.22;;;2.13;;
10586;SDS011;5341;47.606;7.576;2023-02-26T05:53:05;3.00;;;2.13;;
10586;SDS011;5341;47.606;7.576;2023-02-26T05:55:33;3.08;;;2.10;;
10586;SDS011;5341;47.606;7.576;2023-02-26T05:58:01;3.00;;;2.20;;
10586;SDS011;5341;47.606;7.576;2023-02-26T06:00:33;2.78;;;2.00;;
10586;SDS011;5341;47.606;7.576;2023-02-26T06:03:02;3.63;;;2.22;;
10586;SDS011;5341;47.606;7.576;2023-02-26T06:05:32;2.67;;;1.95;;
10586;SDS011;5341;47.606;7.576;2023-02-26T06:08:01;5.22;;;2.47;;
10586;SDS011;5341;47.606;7.576;2023-02-26T06:10:28;3.97;;;2.40;;
10586;SDS011;5341;47.606;7.576;2023-02-26T06:12:56;2.83;;;2.08;;
10586;SDS011;5341;47.606;7.576;2023-02-26T06:15:24;4.25;;;2.42;;
10586;SDS011;5341;47.606;7.576;2023-02-26T06:17:57;2.42;;;2.03;;
10586;SDS011;5341;47.606;7.576;2023-02-26T06:20:27;3.03;;;2.15;;
10586;SDS011;5341;47.606;7.576;2023-02-26T06:22:55;3.75;;;2.10;;
10586;SDS011;5341;47.606;7.576;2023-02-26T06:25:23;5.50;;;2.30;;
10586;SDS011;5341;47.606;7.576;2023-02-26T06:28:00;3.67;;;2.20;;
10586;SDS011;5341;47.606;7.576;2023-02-26T06:30:31;3.92;;;2.10;;
10586;SDS011;5341;47.606;7.576;2023-02-26T06:32:58;2.55;;;1.98;;
10586;SDS011;5341;47.606;7.576;2023-02-26T06:35:27;2.45;;;2.25;;
10586;SDS011;5341;47.606;7.576;2023-02-26T06:37:55;5.07;;;2.40;;
10586;SDS011;5341;47.606;7.576;2023-02-26T06:40:25;3.72;;;2.28;;
10586;SDS011;5341;47.606;7.576;2023-02-26T06:42:53;2.40;;;2.20;;
10586;SDS011;5341;47.606;7.576;2023-02-26T06:45:21;5.30;;;2.63;;
10586;SDS011;5341;47.606;7.576;2023-02-26T06:47:51;3.10;;;2.33;;
10586;SDS011;5341;47.606;7.576;2023-02-26T06:50:19;4.97;;;2.38;;
10586;SDS011;5341;47.606;7.576;2023-02-26T06:52:50;3.67;;;2.20;;
10586;SDS011;5341;47.606;7.576;2023-02-26T06:55:17;2.92;;;2.10;;
10586;SDS011;5341;47.606;7.576;2023-02-26T06:57:46;3.30;;;2.28;;
10586;SDS011;5341;47.606;7.576;2023-02-26T07:00:14;3.40;;;2.15;;
10586;SDS011;5341;47.606;7.576;2023-02-26T07:02:41;3.22;;;2.17;;
10586;SDS011;5341;47.606;7.576;2023-02-26T07:05:09;3.58;;;2.20;;
10586;SDS011;5341;47.606;7.576;2023-02-26T07:07:37;2.80;;;2.03;;
10586;SDS011;5341;47.606;7.576;2023-02-26T07:10:07;3.83;;;2.50;;
10586;SDS011;5341;47.606;7.576;2023-02-26T07:12:36;4.00;;;2.90;;
10586;SDS011;5341;47.606;7.576;2023-02-26T07:15:04;3.92;;;2.67;;
10586;SDS011;5341;47.606;7.576;2023-02-26T07:17:32;3.72;;;2.75;;
10586;SDS011;5341;47.606;7.576;2023-02-26T07:19:59;3.72;;;2.47;;
10586;SDS011;5341;47.606;7.576;2023-02-26T07:22:31;3.17;;;2.40;;
10586;SDS011;5341;47.606;7.576;2023-02-26T07:24:58;3.35;;;2.40;;
10586;SDS011;5341;47.606;7.576;2023-02-26T07:27:27;2.55;;;2.30;;
10586;SDS011;5341;47.606;7.576;2023-02-26T07:29:55;4.03;;;2.47;;
10586;SDS011;5341;47.606;7.576;2023-02-26T07:32:23;3.15;;;2.08;;
10586;SDS011;5341;47.606;7.576;2023-02-26T07:34:51;5.25;;;2.30;;
10586;SDS011;5341;47.606;7.576;2023-02-26T07:37:18;3.15;;;2.20;;
10586;SDS011;5341;47.606;7.576;2023-02-26T07:39:46;4.13;;;2.10;;
10586;SDS011;5341;47.606;7.576;2023-02-26T07:42:15;2.80;;;2.20;;
10586;SDS011;5341;47.606;7.576;2023-02-26T07:44:50;4.18;;;2.40;;
10586;SDS011;5341;47.606;7.576;2023-02-26T07:47:27;2.60;;;2.13;;
10586;SDS011;5341;47.606;7.576;2023-02-26T07:49:57;6.70;;;2.28;;
10586;SDS011;5341;47.606;7.576;2023-02-26T07:52:26;3.90;;;2.75;;
10586;SDS011;5341;47.606;7.576;2023-02-26T07:54:57;3.95;;;2.70;;
10586;SDS011;5341;47.606;7.576;2023-02-26T07:57:25;5.15;;;3.40;;
10586;SDS011;5341;47.606;7.576;2023-02-26T07:59:54;7.03;;;3.53;;
10586;SDS011;5341;47.606;7.576;2023-02-26T08:02:22;5.85;;;3.42;;
10586;SDS011;5341;47.606;7.576;2023-02-26T08:04:50;4.10;;;3.10;;
10586;SDS011;5341;47.606;7.576;2023-02-26T08:07:18;4.35;;;2.47;;
10586;SDS011;5341;47.606;7.576;2023-02-26T08:09:45;4.00;;;2.70;;
10586;SDS011;5341;47.606;7.576;2023-02-26T08:12:12;3.08;;;2.38;;
10586;SDS011;5341;47.606;7.576;2023-02-26T08:14:40;3.40;;;2.45;;
10586;SDS011;5341;47.606;7.576;2023-02-26T08:17:09;3.05;;;1.90;;
10586;SDS011;5341;47.606;7.576;2023-02-26T08:19:40;3.20;;;2.05;;
10586;SDS011;5341;47.606;7.576;2023-02-26T08:22:13;2.22;;;1.73;;
10586;SDS011;5341;47.606;7.576;2023-02-26T08:24:41;3.38;;;1.95;;
10586;SDS011;5341;47.606;7.576;2023-02-26T08:27:08;2.22;;;1.73;;
10586;SDS011;5341;47.606;7.576;2023-02-26T08:29:36;2.30;;;1.73;;
10586;SDS011;5341;47.606;7.576;2023-02-26T08:32:03;3.17;;;1.90;;
10586;SDS011;5341;47.606;7.576;2023-02-26T08:34:32;4.68;;;1.60;;
10586;SDS011;5341;47.606;7.576;2023-02-26T08:36:59;2.85;;;1.75;;
10586;SDS011;5341;47.606;7.576;2023-02-26T08:39:27;1.65;;;1.52;;
10586;SDS011;5341;47.606;7.576;2023-02-26T08:41:57;2.00;;;1.65;;
10586;SDS011;5341;47.606;7.576;2023-02-26T08:44:24;3.55;;;1.88;;
10586;SDS011;5341;47.606;7.576;2023-02-26T08:46:52;2.75;;;1.73;;
10586;SDS011;5341;47.606;7.576;2023-02-26T08:49:21;3.45;;;1.90;;
10586;SDS011;5341;47.606;7.576;2023-02-26T08:51:49;3.05;;;1.90;;
10586;SDS011;5341;47.606;7.576;2023-02-26T08:54:17;1.67;;;1.58;;
10586;SDS011;5341;47.606;7.576;2023-02-26T08:56:45;2.60;;;1.73;;
10586;SDS011;5341;47.606;7.576;2023-02-26T08:59:12;3.33;;;1.75;;
10586;SDS011;5341;47.606;7.576;2023-02-26T09:01:40;2.83;;;1.80;;
10586;SDS011;5341;47.606;7.576;2023-02-26T09:04:07;2.15;;;1.75;;
10586;SDS011;5341;47.606;7.576;2023-02-26T09:06:35;2.70;;;1.95;;
10586;SDS011;5341;47.606;7.576;2023-02-26T09:09:04;2.33;;;1.73;;
10586;SDS011;5341;47.606;7.576;2023-02-26T09:11:32;3.13;;;1.70;;
10586;SDS011;5341;47.606;7.576;2023-02-26T09:14:01;2.60;;;1.85;;
10586;SDS011;5341;47.606;7.576;2023-02-26T09:16:30;3.65;;;2.10;;
10586;SDS011;5341;47.606;7.576;2023-02-26T09:19:00;3.20;;;2.50;;
10586;SDS011;5341;47.606;7.576;2023-02-26T09:21:27;2.85;;;2.10;;
10586;SDS011;5341;47.606;7.576;2023-02-26T09:23:54;2.58;;;2.05;;
10586;SDS011;5341;47.606;7.576;2023-02-26T09:26:24;4.07;;;2.35;;
10586;SDS011;5341;47.606;7.576;2023-02-26T09:28:54;3.35;;;2.38;;
10586;SDS011;5341;47.606;7.576;2023-02-26T09:31:22;2.88;;;2.28;;
10586;SDS011;5341;47.606;7.576;2023-02-26T09:33:49;3.33;;;2.35;;
10586;SDS011;5341;47.606;7.576;2023-02-26T09:36:19;4.07;;;2.10;;
10586;SDS011;5341;47.606;7.576;2023-02-26T09:38:46;3.67;;;1.90;;
10586;SDS011;5341;47.606;7.576;2023-02-26T09:41:15;2.30;;;1.60;;
10586;SDS011;5341;47.606;7.576;2023-02-26T09:46:44;2.20;;;1.42;;
10586;SDS011;5341;47.606;7.576;2023-02-26T09:49:25;1.48;;;1.35;;
10586;SDS011;5341;47.606;7.576;2023-02-26T09:52:10;1.77;;;1.30;;
10586;SDS011;5341;47.606;7.576;2023-02-26T09:54:44;1.75;;;1.40;;
10586;SDS011;5341;47.606;7.576;2023-02-26T09:57:26;1.40;;;1.30;;
10586;SDS011;5341;47.606;7.576;2023-02-26T09:59:59;1.73;;;1.33;;
10586;SDS011;5341;47.606;7.576;2023-02-26T10:02:38;4.32;;;1.42;;
10586;SDS011;5341;47.606;7.576;2023-02-26T10:05:16;2.35;;;1.40;;
10586;SDS011;5341;47.606;7.576;2023-02-26T10:07:48;4.22;;;1.45;;
10586;SDS011;5341;47.606;7.576;2023-02-26T10:10:27;2.70;;;1.48;;
10586;SDS011;5341;47.606;7.576;2023-02-26T10:13:00;1.42;;;1.30;;
10586;SDS011;5341;47.606;7.576;2023-02-26T10:15:31;1.95;;;1.40;;
10586;SDS011;5341;47.606;7.576;2023-02-26T10:18:05;3.13;;;1.70;;
10586;SDS011;5341;47.606;7.576;2023-02-26T10:20:38;2.30;;;1.60;;
10586;SDS011;5341;47.606;7.576;2023-02-26T10:23:19;2.25;;;1.50;;
10586;SDS011;5341;47.606;7.576;2023-02-26T10:25:52;1.95;;;1.20;;
10586;SDS011;5341;47.606;7.576;2023-02-26T10:31:18;1.60;;;1.35;;
10586;SDS011;5341;47.606;7.576;2023-02-26T10:33:58;4.80;;;1.60;;
10586;SDS011;5341;47.606;7.576;2023-02-26T10:36:37;2.15;;;1.45;;
10586;SDS011;5341;47.606;7.576;2023-02-26T10:39:13;2.35;;;1.50;;
10586;SDS011;5341;47.606;7.576;2023-02-26T10:41:47;2.28;;;1.40;;
10586;SDS011;5341;47.606;7.576;2023-02-26T10:44:17;1.73;;;1.30;;
10586;SDS011;5341;47.606;7.576;2023-02-26T10:46:52;1.33;;;1.20;;
10586;SDS011;5341;47.606;7.576;2023-02-26T10:49:29;2.10;;;1.30;;
10586;SDS011;5341;47.606;7.576;2023-02-26T10:52:11;2.00;;;1.40;;
10586;SDS011;5341;47.606;7.576;2023-02-26T10:54:43;2.65;;;1.30;;
10586;SDS011;5341;47.606;7.576;2023-02-26T10:57:18;1.60;;;1.35;;
10586;SDS011;5341;47.606;7.576;2023-02-26T10:59:50;1.90;;;1.50;;
10586;SDS011;5341;47.606;7.576;2023-02-26T11:02:26;1.30;;;1.20;;
10586;SDS011;5341;47.606;7.576;2023-02-26T11:05:00;2.15;;;1.40;;
10586;SDS011;5341;47.606;7.576;2023-02-26T11:07:29;1.65;;;1.30;;
10586;SDS011;5341;47.606;7.576;2023-02-26T11:09:58;1.38;;;1.27;;
10586;SDS011;5341;47.606;7.576;2023-02-26T11:12:26;1.95;;;1.50;;
10586;SDS011;5341;47.606;7.576;2023-02-26T11:14:53;1.95;;;1.60;;
10586;SDS011;5341;47.606;7.576;2023-02-26T11:17:22;1.65;;;1.40;;
10586;SDS011;5341;47.606;7.576;2023-02-26T11:19:55;2.03;;;1.33;;
10586;SDS011;5341;47.606;7.576;2023-02-26T11:22:26;1.67;;;1.30;;
10586;SDS011;5341;47.606;7.576;2023-02-26T11:24:58;1.52;;;1.15;;
10586;SDS011;5341;47.606;7.576;2023-02-26T11:27:29;2.22;;;1.77;;
10586;SDS011;5341;47.606;7.576;2023-02-26T11:29:59;1.73;;;1.30;;
10586;SDS011;5341;47.606;7.576;2023-02-26T11:32:32;2.70;;;1.30;;
10586;SDS011;5341;47.606;7.576;2023-02-26T11:35:02;1.90;;;1.42;;
10586;SDS011;5341;47.606;7.576;2023-02-26T11:37:34;1.25;;;1.10;;
10586;SDS011;5341;47.606;7.576;2023-02-26T11:40:05;1.20;;;1.10;;
10586;SDS011;5341;47.606;7.576;2023-02-26T11:42:42;1.50;;;1.33;;
10586;SDS011;5341;47.606;7.576;2023-02-26T11:45:15;3.10;;;1.80;;
10586;SDS011;5341;47.606;7.576;2023-02-26T11:47:45;1.40;;;1.30;;
10586;SDS011;5341;47.606;7.576;2023-02-26T11:50:17;1.58;;;1.25;;
10586;SDS011;5341;47.606;7.576;2023-02-26T11:52:53;2.83;;;1.50;;
10586;SDS011;5341;47.606;7.576;2023-02-26T11:55:27;1.30;;;1.20;;
10586;SDS011;5341;47.606;7.576;2023-02-26T11:57:57;1.95;;;1.48;;
10586;SDS011;5341;47.606;7.576;2023-02-26T12:00:28;1.52;;;1.30;;
10586;SDS011;5341;47.606;7.576;2023-02-26T12:03:01;1.83;;;1.40;;
10586;SDS011;5341;47.606;7.576;2023-02-26T12:05:34;2.92;;;1.30;;
10586;SDS011;5341;47.606;7.576;2023-02-26T12:08:03;1.67;;;1.20;;
10586;SDS011;5341;47.606;7.576;2023-02-26T12:10:41;1.50;;;1.20;;
10586;SDS011;5341;47.606;7.576;2023-02-26T12:13:18;2.17;;;1.30;;
10586;SDS011;5341;47.606;7.576;2023-02-26T12:15:53;1.55;;;1.13;;
10586;SDS011;5341;47.606;7.576;2023-02-26T12:18:34;1.45;;;1.25;;
10586;SDS011;5341;47.606;7.576;2023-02-26T12:27:22;1.40;;;1.30;;
10586;SDS011;5341;47.606;7.576;2023-02-26T12:30:05;1.00;;;1.00;;
10586;SDS011;5341;47.606;7.576;2023-02-26T12:32:50;1.67;;;1.17;;
10586;SDS011;5341;47.606;7.576;2023-02-26T12:35:41;1.92;;;1.10;;
10586;SDS011;5341;47.606;7.576;2023-02-26T12:38:23;1.83;;;1.08;;
10586;SDS011;5341;47.606;7.576;2023-02-26T12:41:02;1.73;;;1.20;;
10586;SDS011;5341;47.606;7.576;2023-02-26T12:43:51;1.50;;;1.20;;
10586;SDS011;5341;47.606;7.576;2023-02-26T12:49:29;2.22;;;1.42;;
10586;SDS011;5341;47.606;7.576;2023-02-26T12:52:27;2.45;;;1.50;;
10586;SDS011;5341;47.606;7.576;2023-02-26T12:55:20;1.98;;;1.50;;
10586;SDS011;5341;47.606;7.576;2023-02-26T13:01:12;1.58;;;1.30;;
10586;SDS011;5341;47.606;7.576;2023-02-26T13:04:06;1.88;;;1.35;;
10586;SDS011;5341;47.606;7.576;2023-02-26T13:10:14;1.77;;;1.38;;
10586;SDS011;5341;47.606;7.576;2023-02-26T13:12:56;2.13;;;1.30;;
10586;SDS011;5341;47.606;7.576;2023-02-26T13:15:45;1.70;;;1.40;;
10586;SDS011;5341;47.606;7.576;2023-02-26T13:18:24;1.63;;;1.40;;
10586;SDS011;5341;47.606;7.576;2023-02-26T13:20:57;2.30;;;1.45;;
10586;SDS011;5341;47.606;7.576;2023-02-26T13:23:31;1.77;;;1.45;;
10586;SDS011;5341;47.606;7.576;2023-02-26T13:26:05;1.42;;;1.33;;
10586;SDS011;5341;47.606;7.576;2023-02-26T13:28:38;1.77;;;1.60;;
10586;SDS011;5341;47.606;7.576;2023-02-26T13:31:13;2.17;;;1.70;;
10586;SDS011;5341;47.606;7.576;2023-02-26T13:33:44;2.28;;;1.65;;
10586;SDS011;5341;47.606;7.576;2023-02-26T13:36:14;2.70;;;1.90;;
10586;SDS011;5341;47.606;7.576;2023-02-26T13:38:45;2.58;;;1.77;;
10586;SDS011;5341;47.606;7.576;2023-02-26T13:41:24;1.95;;;1.75;;
10586;SDS011;5341;47.606;7.576;2023-02-26T13:44:08;1.85;;;1.60;;
10586;SDS011;5341;47.606;7.576;2023-02-26T13:46:59;3.45;;;2.25;;
10586;SDS011;5341;47.606;7.576;2023-02-26T13:49:45;1.92;;;1.73;;
10586;SDS011;5341;47.606;7.576;2023-02-26T13:52:24;2.00;;;1.70;;
10586;SDS011;5341;47.606;7.576;2023-02-26T13:54:52;2.13;;;1.92;;
10586;SDS011;5341;47.606;7.576;2023-02-26T13:57:24;2.00;;;1.60;;
10586;SDS011;5341;47.606;7.576;2023-02-26T14:00:07;1.70;;;1.60;;
10586;SDS011;5341;47.606;7.576;2023-02-26T14:02:48;1.60;;;1.50;;
10586;SDS011;5341;47.606;7.576;2023-02-26T14:05:34;2.00;;;1.30;;
10586;SDS011;5341;47.606;7.576;2023-02-26T14:08:21;1.52;;;1.27;;
10586;SDS011;5341;47.606;7.576;2023-02-26T14:10:55;1.60;;;1.40;;
10586;SDS011;5341;47.606;7.576;2023-02-26T14:13:32;1.40;;;1.30;;
10586;SDS011;5341;47.606;7.576;2023-02-26T14:16:03;1.27;;;1.17;;
10586;SDS011;5341;47.606;7.576;2023-02-26T14:18:40;1.65;;;1.40;;
10586;SDS011;5341;47.606;7.576;2023-02-26T14:21:38;2.33;;;1.30;;
10586;SDS011;5341;47.606;7.576;2023-02-26T14:24:15;2.55;;;1.40;;
10586;SDS011;5341;47.606;7.576;2023-02-26T14:26:50;2.80;;;1.40;;
10586;SDS011;5341;47.606;7.576;2023-02-26T14:29:55;1.73;;;1.33;;
10586;SDS011;5341;47.606;7.576;2023-02-26T14:32:26;1.83;;;1.40;;
10586;SDS011;5341;47.606;7.576;2023-02-26T14:34:58;1.42;;;1.20;;
10586;SDS011;5341;47.606;7.576;2023-02-26T14:37:30;1.60;;;1.50;;
10586;SDS011;5341;47.606;7.576;2023-02-26T14:40:04;1.30;;;1.20;;
10586;SDS011;5341;47.606;7.576;2023-02-26T14:42:40;1.35;;;1.25;;
10586;SDS011;5341;47.606;7.576;2023-02-26T14:45:26;1.30;;;1.20;;
10586;SDS011;5341;47.606;7.576;2023-02-26T14:48:00;1.30;;;1.20;;
10586;SDS011;5341;47.606;7.576;2023-02-26T14:50:40;1.40;;;1.30;;
10586;SDS011;5341;47.606;7.576;2023-02-26T14:53:22;1.90;;;1.48;;
10586;SDS011;5341;47.606;7.576;2023-02-26T14:56:08;1.80;;;1.60;;
10586;SDS011;5341;47.606;7.576;2023-02-26T14:58:50;1.88;;;1.40;;
10586;SDS011;5341;47.606;7.576;2023-02-26T15:01:34;2.03;;;1.30;;
10586;SDS011;5341;47.606;7.576;2023-02-26T15:07:23;1.30;;;1.20;;
10586;SDS011;5341;47.606;7.576;2023-02-26T15:10:16;2.60;;;1.45;;
10586;SDS011;5341;47.606;7.576;2023-02-26T15:13:04;1.90;;;1.35;;
10586;SDS011;5341;47.606;7.576;2023-02-26T15:15:47;1.40;;;1.30;;
10586;SDS011;5341;47.606;7.576;2023-02-26T15:18:25;1.50;;;1.40;;
10586;SDS011;5341;47.606;7.576;2023-02-26T15:21:03;1.40;;;1.30;;
10586;SDS011;5341;47.606;7.576;2023-02-26T15:23:37;1.75;;;1.30;;
10586;SDS011;5341;47.606;7.576;2023-02-26T15:26:07;1.58;;;1.40;;
10586;SDS011;5341;47.606;7.576;2023-02-26T15:28:46;1.30;;;1.20;;
10586;SDS011;5341;47.606;7.576;2023-02-26T15:31:27;1.83;;;1.70;;
10586;SDS011;5341;47.606;7.576;2023-02-26T15:34:05;2.53;;;2.20;;
10586;SDS011;5341;47.606;7.576;2023-02-26T15:36:38;2.60;;;2.30;;
10586;SDS011;5341;47.606;7.576;2023-02-26T15:39:12;3.63;;;2.40;;
10586;SDS011;5341;47.606;7.576;2023-02-26T15:41:42;2.05;;;1.75;;
10586;SDS011;5341;47.606;7.576;2023-02-26T15:44:12;1.60;;;1.50;;
10586;SDS011;5341;47.606;7.576;2023-02-26T15:46:44;2.47;;;1.92;;
10586;SDS011;5341;47.606;7.576;2023-02-26T15:49:19;1.50;;;1.40;;
10586;SDS011;5341;47.606;7.576;2023-02-26T15:51:54;1.75;;;1.50;;
10586;SDS011;5341;47.606;7.576;2023-02-26T15:54:31;1.98;;;1.70;;
10586;SDS011;5341;47.606;7.576;2023-02-26T15:57:03;1.60;;;1.50;;
10586;SDS011;5341;47.606;7.576;2023-02-26T15:59:33;1.70;;;1.60;;
10586;SDS011;5341;47.606;7.576;2023-02-26T16:02:07;2.97;;;1.70;;
10586;SDS011;5341;47.606;7.576;2023-02-26T16:04:40;2.80;;;1.70;;
10586;SDS011;5341;47.606;7.576;2023-02-26T16:07:10;1.80;;;1.50;;
10586;SDS011;5341;47.606;7.576;2023-02-26T16:09:39;1.75;;;1.60;;